sensor_id;sensor_type;location;lat;lon;timestamp;pressure;altitude;pressure_sealevel;temperature;humidity
19096;BME280;9680;52.520;13.332;2023-12-07T00:02:15;101435.56;;;2.49;88.33
19096;BME280;9680;52.520;13.332;2023-12-07T00:04:41;101447.59;;;2.50;88.02
19096;BME280;9680;52.520;13.332;2023-12-07T00:07:08;101439.84;;;2.48;88.03
19096;BME280;9680;52.520;13.332;2023-12-07T00:09:36;101440.72;;;2.49;88.14
19096;BME280;9680;52.520;13.332;2023-12-07T00:12:03;101437.28;;;2.48;88.06
19096;BME280;9680;52.520;13.332;2023-12-07T00:14:30;101432.13;;;2.48;88.28
19096;BME280;9680;52.520;13.332;2023-12-07T00:16:57;101441.56;;;2.45;88.06
19096;BME280;9680;52.520;13.332;2023-12-07T00:19:24;101438.97;;;2.42;88.07
19096;BME280;9680;52.520;13.332;2023-12-07T00:21:51;101437.22;;;2.39;88.23
19096;BME280;9680;52.520;13.332;2023-12-07T00:24:17;101436.38;;;2.42;88.20
19096;BME280;9680;52.520;13.332;2023-12-07T00:26:46;101443.28;;;2.46;88.42
19096;BME280;9680;52.520;13.332;2023-12-07T00:29:13;101443.28;;;2.46;88.02
19096;BME280;9680;52.520;13.332;2023-12-07T00:31:40;101449.25;;;2.46;88.30
19096;BME280;9680;52.520;13.332;2023-12-07T00:34:07;101436.41;;;2.45;87.91
19096;BME280;9680;52.520;13.332;2023-12-07T00:36:35;101446.66;;;2.42;88.08
19096;BME280;9680;52.520;13.332;2023-12-07T00:39:02;101451.78;;;2.40;87.99
19096;BME280;9680;52.520;13.332;2023-12-07T00:41:30;101455.25;;;2.41;88.00
19096;BME280;9680;52.520;13.332;2023-12-07T00:43:58;101453.53;;;2.44;88.02
19096;BME280;9680;52.520;13.332;2023-12-07T00:46:25;101448.41;;;2.47;88.07
19096;BME280;9680;52.520;13.332;2023-12-07T00:48:52;101448.44;;;2.51;87.80
19096;BME280;9680;52.520;13.332;2023-12-07T00:51:19;101450.13;;;2.47;87.53
19096;BME280;9680;52.520;13.332;2023-12-07T00:53:46;101452.72;;;2.47;87.81
19096;BME280;9680;52.520;13.332;2023-12-07T00:56:12;101456.13;;;2.47;87.72
19096;BME280;9680;52.520;13.332;2023-12-07T00:58:39;101454.44;;;2.48;87.86
19096;BME280;9680;52.520;13.332;2023-12-07T01:01:07;101462.13;;;2.46;87.81
19096;BME280;9680;52.520;13.332;2023-12-07T01:03:34;101463.00;;;2.47;87.85
19096;BME280;9680;52.520;13.332;2023-12-07T01:06:01;101472.38;;;2.43;87.59
19096;BME280;9680;52.520;13.332;2023-12-07T01:08:28;101470.69;;;2.44;87.66
19096;BME280;9680;52.520;13.332;2023-12-07T01:10:55;101480.97;;;2.45;87.88
19096;BME280;9680;52.520;13.332;2023-12-07T01:13:22;101486.13;;;2.48;87.75
19096;BME280;9680;52.520;13.332;2023-12-07T01:15:49;101487.03;;;2.52;87.85
19096;BME280;9680;52.520;13.332;2023-12-07T01:18:17;101483.63;;;2.53;87.69
19096;BME280;9680;52.520;13.332;2023-12-07T01:20:43;101495.59;;;2.53;87.69
19096;BME280;9680;52.520;13.332;2023-12-07T01:23:10;101490.44;;;2.50;87.39
19096;BME280;9680;52.520;13.332;2023-12-07T01:25:37;101492.16;;;2.49;87.69
19096;BME280;9680;52.520;13.332;2023-12-07T01:28:04;101498.16;;;2.50;87.72
19096;BME280;9680;52.520;13.332;2023-12-07T01:30:31;101502.47;;;2.54;87.79
19096;BME280;9680;52.520;13.332;2023-12-07T01:32:57;101507.63;;;2.52;87.41
19096;BME280;9680;52.520;13.332;2023-12-07T01:35:26;101511.03;;;2.51;87.19
19096;BME280;9680;52.520;13.332;2023-12-07T01:37:54;101518.75;;;2.51;87.52
19096;BME280;9680;52.520;13.332;2023-12-07T01:40:20;101508.44;;;2.50;87.39
19096;BME280;9680;52.520;13.332;2023-12-07T01:42:50;101512.72;;;2.47;87.38
19096;BME280;9680;52.520;13.332;2023-12-07T01:45:17;101515.28;;;2.47;87.46
19096;BME280;9680;52.520;13.332;2023-12-07T01:47:46;101517.88;;;2.49;87.40
19096;BME280;9680;52.520;13.332;2023-12-07T01:50:14;101517.88;;;2.51;87.39
19096;BME280;9680;52.520;13.332;2023-12-07T01:52:45;101523.94;;;2.54;87.51
19096;BME280;9680;52.520;13.332;2023-12-07T01:55:14;101522.22;;;2.56;87.35
19096;BME280;9680;52.520;13.332;2023-12-07T01:57:41;101516.22;;;2.54;87.31
19096;BME280;9680;52.520;13.332;2023-12-07T02:00:10;101512.75;;;2.54;87.38
19096;BME280;9680;52.520;13.332;2023-12-07T02:02:38;101520.50;;;2.55;87.47
19096;BME280;9680;52.520;13.332;2023-12-07T02:05:06;101518.78;;;2.56;87.41
19096;BME280;9680;52.520;13.332;2023-12-07T02:07:34;101528.19;;;2.54;87.25
19096;BME280;9680;52.520;13.332;2023-12-07T02:10:02;101527.34;;;2.53;87.09
19096;BME280;9680;52.520;13.332;2023-12-07T02:12:29;101515.28;;;2.46;87.25
19096;BME280;9680;52.520;13.332;2023-12-07T02:14:56;101523.88;;;2.48;87.43
19096;BME280;9680;52.520;13.332;2023-12-07T02:17:28;101523.88;;;2.50;87.57
19096;BME280;9680;52.520;13.332;2023-12-07T02:20:01;101521.31;;;2.51;87.56
19096;BME280;9680;52.520;13.332;2023-12-07T02:22:34;101521.31;;;2.48;87.28
19096;BME280;9680;52.520;13.332;2023-12-07T02:25:09;101518.72;;;2.48;87.47
19096;BME280;9680;52.520;13.332;2023-12-07T02:27:38;101521.31;;;2.50;87.35
19096;BME280;9680;52.520;13.332;2023-12-07T02:30:07;101523.91;;;2.51;87.41
19096;BME280;9680;52.520;13.332;2023-12-07T02:32:33;101528.16;;;2.49;87.27
19096;BME280;9680;52.520;13.332;2023-12-07T02:35:00;101530.75;;;2.49;87.32
19096;BME280;9680;52.520;13.332;2023-12-07T02:37:28;101536.72;;;2.50;87.31
19096;BME280;9680;52.520;13.332;2023-12-07T02:40:00;101536.75;;;2.48;87.25
19096;BME280;9680;52.520;13.332;2023-12-07T02:42:30;101539.31;;;2.48;87.39
19096;BME280;9680;52.520;13.332;2023-12-07T02:44:59;101540.16;;;2.47;87.27
19096;BME280;9680;52.520;13.332;2023-12-07T02:47:27;101535.00;;;2.48;87.48
19096;BME280;9680;52.520;13.332;2023-12-07T02:49:54;101536.69;;;2.43;87.35
19096;BME280;9680;52.520;13.332;2023-12-07T02:52:21;101542.72;;;2.44;87.37
19096;BME280;9680;52.520;13.332;2023-12-07T02:54:47;101540.13;;;2.44;87.34
19096;BME280;9680;52.520;13.332;2023-12-07T02:57:14;101542.69;;;2.42;87.37
19096;BME280;9680;52.520;13.332;2023-12-07T02:59:41;101543.53;;;2.41;87.43
19096;BME280;9680;52.520;13.332;2023-12-07T03:02:09;101548.66;;;2.38;87.50
19096;BME280;9680;52.520;13.332;2023-12-07T03:04:36;101554.63;;;2.37;87.47
19096;BME280;9680;52.520;13.332;2023-12-07T03:07:03;101556.34;;;2.38;87.42
19096;BME280;9680;52.520;13.332;2023-12-07T03:09:30;101558.97;;;2.40;87.36
19096;BME280;9680;52.520;13.332;2023-12-07T03:11:57;101556.38;;;2.40;87.33
19096;BME280;9680;52.520;13.332;2023-12-07T03:14:24;101555.50;;;2.38;87.45
19096;BME280;9680;52.520;13.332;2023-12-07T03:16:50;101561.50;;;2.37;87.24
19096;BME280;9680;52.520;13.332;2023-12-07T03:19:18;101567.53;;;2.39;87.34
19096;BME280;9680;52.520;13.332;2023-12-07T03:21:45;101563.19;;;2.35;87.11
19096;BME280;9680;52.520;13.332;2023-12-07T03:24:12;101562.31;;;2.34;87.52
19096;BME280;9680;52.520;13.332;2023-12-07T03:26:39;101571.75;;;2.33;87.24
19096;BME280;9680;52.520;13.332;2023-12-07T03:29:05;101567.44;;;2.31;87.38
19096;BME280;9680;52.520;13.332;2023-12-07T03:31:32;101576.03;;;2.33;87.33
19096;BME280;9680;52.520;13.332;2023-12-07T03:33:59;101566.63;;;2.35;87.52
19096;BME280;9680;52.520;13.332;2023-12-07T03:36:28;101573.50;;;2.35;87.46
19096;BME280;9680;52.520;13.332;2023-12-07T03:38:55;101579.47;;;2.35;87.36
19096;BME280;9680;52.520;13.332;2023-12-07T03:41:22;101579.50;;;2.37;87.38
19096;BME280;9680;52.520;13.332;2023-12-07T03:43:48;101580.34;;;2.37;87.41
19096;BME280;9680;52.520;13.332;2023-12-07T03:46:16;101584.66;;;2.37;87.39
19096;BME280;9680;52.520;13.332;2023-12-07T03:48:43;101590.66;;;2.36;87.43
19096;BME280;9680;52.520;13.332;2023-12-07T03:51:12;101591.50;;;2.36;87.35
19096;BME280;9680;52.520;13.332;2023-12-07T03:53:41;101585.47;;;2.34;87.29
19096;BME280;9680;52.520;13.332;2023-12-07T03:56:08;101586.31;;;2.33;87.49
19096;BME280;9680;52.520;13.332;2023-12-07T03:58:35;101590.66;;;2.36;87.67
19096;BME280;9680;52.520;13.332;2023-12-07T04:01:02;101588.09;;;2.39;87.67
19096;BME280;9680;52.520;13.332;2023-12-07T04:03:29;101589.00;;;2.44;87.59
19096;BME280;9680;52.520;13.332;2023-12-07T04:05:56;101581.28;;;2.44;87.41
19096;BME280;9680;52.520;13.332;2023-12-07T04:08:23;101582.09;;;2.41;87.33
19096;BME280;9680;52.520;13.332;2023-12-07T04:10:51;101582.06;;;2.38;87.30
19096;BME280;9680;52.520;13.332;2023-12-07T04:13:17;101581.19;;;2.36;87.32
19096;BME280;9680;52.520;13.332;2023-12-07T04:15:44;101585.50;;;2.36;87.36
19096;BME280;9680;52.520;13.332;2023-12-07T04:18:11;101591.50;;;2.35;87.46
19096;BME280;9680;52.520;13.332;2023-12-07T04:20:38;101585.50;;;2.36;87.54
19096;BME280;9680;52.520;13.332;2023-12-07T04:23:04;101590.63;;;2.32;87.23
19096;BME280;9680;52.520;13.332;2023-12-07T04:25:31;101593.94;;;2.24;87.09
19096;BME280;9680;52.520;13.332;2023-12-07T04:28:00;101592.19;;;2.21;87.31
19096;BME280;9680;52.520;13.332;2023-12-07T04:30:26;101598.22;;;2.23;87.60
19096;BME280;9680;52.520;13.332;2023-12-07T04:32:53;101601.56;;;2.16;87.35
19096;BME280;9680;52.520;13.332;2023-12-07T04:35:20;101607.44;;;2.06;87.19
19096;BME280;9680;52.520;13.332;2023-12-07T04:37:47;101615.94;;;1.98;87.51
19096;BME280;9680;52.520;13.332;2023-12-07T04:40:13;101616.78;;;1.97;88.12
19096;BME280;9680;52.520;13.332;2023-12-07T04:42:41;101622.00;;;2.02;88.44
19096;BME280;9680;52.520;13.332;2023-12-07T04:45:09;101617.75;;;2.09;88.19
19096;BME280;9680;52.520;13.332;2023-12-07T04:47:36;101632.41;;;2.16;88.39
19096;BME280;9680;52.520;13.332;2023-12-07T04:50:03;101627.34;;;2.22;88.15
19096;BME280;9680;52.520;13.332;2023-12-07T04:52:30;101627.38;;;2.24;88.10
19096;BME280;9680;52.520;13.332;2023-12-07T04:54:59;101630.84;;;2.29;88.25
19096;BME280;9680;52.520;13.332;2023-12-07T04:57:25;101624.78;;;2.24;87.70
19096;BME280;9680;52.520;13.332;2023-12-07T04:59:52;101629.94;;;2.25;88.09
19096;BME280;9680;52.520;13.332;2023-12-07T05:02:21;101629.09;;;2.26;88.15
19096;BME280;9680;52.520;13.332;2023-12-07T05:04:48;101632.53;;;2.27;87.91
19096;BME280;9680;52.520;13.332;2023-12-07T05:07:15;101628.16;;;2.16;87.78
19096;BME280;9680;52.520;13.332;2023-12-07T05:09:42;101634.09;;;2.12;87.80
19096;BME280;9680;52.520;13.332;2023-12-07T05:12:09;101631.47;;;2.06;87.88
19096;BME280;9680;52.520;13.332;2023-12-07T05:14:36;101631.41;;;2.00;88.02
19096;BME280;9680;52.520;13.332;2023-12-07T05:17:03;101632.28;;;2.02;88.27
19096;BME280;9680;52.520;13.332;2023-12-07T05:19:31;101631.47;;;2.06;88.63
19096;BME280;9680;52.520;13.332;2023-12-07T05:21:58;101628.94;;;2.09;88.70
19096;BME280;9680;52.520;13.332;2023-12-07T05:24:25;101646.06;;;2.10;88.37
19096;BME280;9680;52.520;13.332;2023-12-07T05:26:52;101628.00;;;2.06;88.36
19096;BME280;9680;52.520;13.332;2023-12-07T05:29:18;101646.03;;;2.09;88.52
19096;BME280;9680;52.520;13.332;2023-12-07T05:31:48;101638.41;;;2.15;88.79
19096;BME280;9680;52.520;13.332;2023-12-07T05:34:15;101633.31;;;2.20;88.63
19096;BME280;9680;52.520;13.332;2023-12-07T05:36:43;101636.81;;;2.25;88.50
19096;BME280;9680;52.520;13.332;2023-12-07T05:39:09;101636.00;;;2.29;88.56
19096;BME280;9680;52.520;13.332;2023-12-07T05:41:36;101641.19;;;2.33;88.44
19096;BME280;9680;52.520;13.332;2023-12-07T05:44:03;101634.28;;;2.29;88.33
19096;BME280;9680;52.520;13.332;2023-12-07T05:46:31;101634.34;;;2.32;88.36
19096;BME280;9680;52.520;13.332;2023-12-07T05:48:58;101640.34;;;2.36;88.36
19096;BME280;9680;52.520;13.332;2023-12-07T05:51:24;101633.50;;;2.37;88.22
19096;BME280;9680;52.520;13.332;2023-12-07T05:53:52;101632.66;;;2.38;88.11
19096;BME280;9680;52.520;13.332;2023-12-07T05:56:19;101637.84;;;2.41;88.00
19096;BME280;9680;52.520;13.332;2023-12-07T05:58:46;101641.25;;;2.40;87.83
19096;BME280;9680;52.520;13.332;2023-12-07T06:01:16;101638.69;;;2.40;88.04
19096;BME280;9680;52.520;13.332;2023-12-07T06:03:44;101641.22;;;2.38;87.58
19096;BME280;9680;52.520;13.332;2023-12-07T06:06:11;101648.06;;;2.36;87.72
19096;BME280;9680;52.520;13.332;2023-12-07T06:08:39;101653.25;;;2.39;87.86
19096;BME280;9680;52.520;13.332;2023-12-07T06:11:15;101656.63;;;2.35;87.50
19096;BME280;9680;52.520;13.332;2023-12-07T06:13:42;101661.78;;;2.35;87.70
19096;BME280;9680;52.520;13.332;2023-12-07T06:16:11;101659.19;;;2.35;87.66
19096;BME280;9680;52.520;13.332;2023-12-07T06:18:39;101659.13;;;2.30;87.41
19096;BME280;9680;52.520;13.332;2023-12-07T06:21:06;101657.34;;;2.23;87.32
19096;BME280;9680;52.520;13.332;2023-12-07T06:23:32;101673.59;;;2.19;87.59
19096;BME280;9680;52.520;13.332;2023-12-07T06:26:01;101670.16;;;2.18;88.00
19096;BME280;9680;52.520;13.332;2023-12-07T06:28:31;101670.19;;;2.23;88.09
19096;BME280;9680;52.520;13.332;2023-12-07T06:31:05;101678.81;;;2.28;88.00
19096;BME280;9680;52.520;13.332;2023-12-07T06:33:32;101679.72;;;2.30;87.85
19096;BME280;9680;52.520;13.332;2023-12-07T06:36:00;101690.00;;;2.30;87.68
19096;BME280;9680;52.520;13.332;2023-12-07T06:38:28;101690.94;;;2.36;88.05
19096;BME280;9680;52.520;13.332;2023-12-07T06:40:55;101690.13;;;2.40;87.79
19096;BME280;9680;52.520;13.332;2023-12-07T06:43:22;101696.13;;;2.40;87.67
19096;BME280;9680;52.520;13.332;2023-12-07T06:45:51;101692.69;;;2.41;87.66
19096;BME280;9680;52.520;13.332;2023-12-07T06:48:17;101701.28;;;2.42;87.65
19096;BME280;9680;52.520;13.332;2023-12-07T06:50:45;101705.56;;;2.40;87.68
19096;BME280;9680;52.520;13.332;2023-12-07T06:53:11;101706.41;;;2.39;87.36
19096;BME280;9680;52.520;13.332;2023-12-07T06:55:38;101696.09;;;2.37;87.58
19096;BME280;9680;52.520;13.332;2023-12-07T06:58:07;101702.03;;;2.33;87.85
19096;BME280;9680;52.520;13.332;2023-12-07T07:00:34;101702.84;;;2.30;87.63
19096;BME280;9680;52.520;13.332;2023-12-07T07:03:03;101700.25;;;2.27;87.67
19096;BME280;9680;52.520;13.332;2023-12-07T07:05:29;101701.13;;;2.28;87.70
19096;BME280;9680;52.520;13.332;2023-12-07T07:07:57;101706.25;;;2.29;87.79
19096;BME280;9680;52.520;13.332;2023-12-07T07:10:24;101698.56;;;2.28;87.45
19096;BME280;9680;52.520;13.332;2023-12-07T07:12:51;101703.69;;;2.28;87.73
19096;BME280;9680;52.520;13.332;2023-12-07T07:15:17;101712.28;;;2.30;87.53
19096;BME280;9680;52.520;13.332;2023-12-07T07:17:45;101708.88;;;2.31;87.55
19096;BME280;9680;52.520;13.332;2023-12-07T07:20:13;101713.13;;;2.30;87.34
19096;BME280;9680;52.520;13.332;2023-12-07T07:22:40;101714.81;;;2.27;87.30
19096;BME280;9680;52.520;13.332;2023-12-07T07:25:07;101714.81;;;2.28;87.52
19096;BME280;9680;52.520;13.332;2023-12-07T07:27:34;101720.91;;;2.33;87.37
19096;BME280;9680;52.520;13.332;2023-12-07T07:30:00;101722.69;;;2.38;87.50
19096;BME280;9680;52.520;13.332;2023-12-07T07:32:29;101714.09;;;2.37;87.19
19096;BME280;9680;52.520;13.332;2023-12-07T07:34:56;101716.69;;;2.40;87.31
19096;BME280;9680;52.520;13.332;2023-12-07T07:37:24;101713.31;;;2.44;87.45
19096;BME280;9680;52.520;13.332;2023-12-07T07:39:51;101710.81;;;2.49;87.30
19096;BME280;9680;52.520;13.332;2023-12-07T07:42:18;101720.28;;;2.55;87.31
19096;BME280;9680;52.520;13.332;2023-12-07T07:44:47;101714.31;;;2.59;87.24
19096;BME280;9680;52.520;13.332;2023-12-07T07:47:14;101720.34;;;2.61;87.06
19096;BME280;9680;52.520;13.332;2023-12-07T07:49:41;101720.38;;;2.62;86.89
19096;BME280;9680;52.520;13.332;2023-12-07T07:52:08;101725.56;;;2.66;87.07
19096;BME280;9680;52.520;13.332;2023-12-07T07:54:36;101717.91;;;2.70;87.00
19096;BME280;9680;52.520;13.332;2023-12-07T07:57:03;101716.19;;;2.74;86.64
19096;BME280;9680;52.520;13.332;2023-12-07T07:59:30;101712.81;;;2.76;86.59
19096;BME280;9680;52.520;13.332;2023-12-07T08:01:57;101716.25;;;2.80;86.80
19096;BME280;9680;52.520;13.332;2023-12-07T08:04:24;101719.69;;;2.79;86.41
19096;BME280;9680;52.520;13.332;2023-12-07T08:06:51;101720.50;;;2.75;86.06
19096;BME280;9680;52.520;13.332;2023-12-07T08:09:18;101717.94;;;2.75;86.45
19096;BME280;9680;52.520;13.332;2023-12-07T08:11:46;101717.03;;;2.70;85.77
19096;BME280;9680;52.520;13.332;2023-12-07T08:14:12;101720.38;;;2.62;85.84
19096;BME280;9680;52.520;13.332;2023-12-07T08:16:42;101724.69;;;2.64;86.03
19096;BME280;9680;52.520;13.332;2023-12-07T08:19:09;101743.63;;;2.70;86.02
19096;BME280;9680;52.520;13.332;2023-12-07T08:21:36;101741.06;;;2.72;86.08
19096;BME280;9680;52.520;13.332;2023-12-07T08:24:03;101744.47;;;2.69;85.86
19096;BME280;9680;52.520;13.332;2023-12-07T08:26:31;101745.28;;;2.67;85.76
19096;BME280;9680;52.520;13.332;2023-12-07T08:28:59;101745.25;;;2.64;85.74
19096;BME280;9680;52.520;13.332;2023-12-07T08:31:26;101747.75;;;2.59;85.65
19096;BME280;9680;52.520;13.332;2023-12-07T08:33:52;101748.53;;;2.50;85.53
19096;BME280;9680;52.520;13.332;2023-12-07T08:36:19;101746.84;;;2.52;86.06
19096;BME280;9680;52.520;13.332;2023-12-07T08:38:46;101745.13;;;2.51;86.21
19096;BME280;9680;52.520;13.332;2023-12-07T08:41:13;101751.22;;;2.61;86.30
19096;BME280;9680;52.520;13.332;2023-12-07T08:43:39;101748.72;;;2.66;86.12
19096;BME280;9680;52.520;13.332;2023-12-07T08:46:07;101757.38;;;2.74;86.13
19096;BME280;9680;52.520;13.332;2023-12-07T08:48:35;101758.34;;;2.85;86.19
19096;BME280;9680;52.520;13.332;2023-12-07T08:51:02;101749.84;;;2.92;85.89
19096;BME280;9680;52.520;13.332;2023-12-07T08:53:29;101752.44;;;2.96;85.43
19096;BME280;9680;52.520;13.332;2023-12-07T08:55:56;101757.66;;;2.99;85.45
19096;BME280;9680;52.520;13.332;2023-12-07T08:58:22;101754.25;;;3.04;85.22
19096;BME280;9680;52.520;13.332;2023-12-07T09:00:49;101759.50;;;3.12;85.06
19096;BME280;9680;52.520;13.332;2023-12-07T09:03:18;101759.50;;;3.15;85.13
19096;BME280;9680;52.520;13.332;2023-12-07T09:05:45;101762.13;;;3.20;84.92
19096;BME280;9680;52.520;13.332;2023-12-07T09:08:12;101764.72;;;3.23;84.76
19096;BME280;9680;52.520;13.332;2023-12-07T09:10:39;101764.72;;;3.23;84.48
19096;BME280;9680;52.520;13.332;2023-12-07T09:13:06;101757.88;;;3.24;84.49
19096;BME280;9680;52.520;13.332;2023-12-07T09:15:32;101759.56;;;3.22;84.02
19096;BME280;9680;52.520;13.332;2023-12-07T09:18:02;101761.31;;;3.26;84.37
19096;BME280;9680;52.520;13.332;2023-12-07T09:20:30;101774.19;;;3.27;84.27
19096;BME280;9680;52.520;13.332;2023-12-07T09:22:57;101769.06;;;3.30;84.18
19096;BME280;9680;52.520;13.332;2023-12-07T09:25:24;101764.81;;;3.34;84.15
19096;BME280;9680;52.520;13.332;2023-12-07T09:27:53;101765.69;;;3.33;83.86
19096;BME280;9680;52.520;13.332;2023-12-07T09:30:20;101767.34;;;3.29;83.48
19096;BME280;9680;52.520;13.332;2023-12-07T09:32:46;101768.19;;;3.27;83.87
19096;BME280;9680;52.520;13.332;2023-12-07T09:35:13;101771.63;;;3.26;83.59
19096;BME280;9680;52.520;13.332;2023-12-07T09:37:46;101767.34;;;3.28;83.44
19096;BME280;9680;52.520;13.332;2023-12-07T09:40:16;101762.16;;;3.26;83.72
19096;BME280;9680;52.520;13.332;2023-12-07T09:42:44;101769.06;;;3.29;83.83
19096;BME280;9680;52.520;13.332;2023-12-07T09:45:12;101773.41;;;3.33;83.58
19096;BME280;9680;52.520;13.332;2023-12-07T09:47:40;101786.28;;;3.33;83.33
19096;BME280;9680;52.520;13.332;2023-12-07T09:50:08;101789.63;;;3.23;83.00
19096;BME280;9680;52.520;13.332;2023-12-07T09:52:35;101787.69;;;3.00;82.57
19096;BME280;9680;52.520;13.332;2023-12-07T09:55:05;101792.63;;;2.80;83.47
19096;BME280;9680;52.520;13.332;2023-12-07T09:57:32;101789.91;;;2.67;84.08
19096;BME280;9680;52.520;13.332;2023-12-07T09:59:59;101788.94;;;2.59;84.52
19096;BME280;9680;52.520;13.332;2023-12-07T10:02:26;101786.44;;;2.64;85.36
19096;BME280;9680;52.520;13.332;2023-12-07T10:05:03;101792.56;;;2.75;85.66
19096;BME280;9680;52.520;13.332;2023-12-07T10:07:32;101790.84;;;2.77;85.29
19096;BME280;9680;52.520;13.332;2023-12-07T10:10:00;101787.50;;;2.84;85.47
19096;BME280;9680;52.520;13.332;2023-12-07T10:12:30;101781.56;;;2.91;85.21
19096;BME280;9680;52.520;13.332;2023-12-07T10:14:59;101786.69;;;2.88;84.91
19096;BME280;9680;52.520;13.332;2023-12-07T10:17:43;101780.59;;;2.80;84.94
19096;BME280;9680;52.520;13.332;2023-12-07T10:20:10;101772.00;;;2.76;84.94
19096;BME280;9680;52.520;13.332;2023-12-07T10:22:38;101772.94;;;2.85;85.24
19096;BME280;9680;52.520;13.332;2023-12-07T10:25:06;101761.81;;;2.89;84.88
19096;BME280;9680;52.520;13.332;2023-12-07T10:27:34;101764.44;;;2.94;84.96
19096;BME280;9680;52.520;13.332;2023-12-07T10:30:01;101770.59;;;3.08;84.89
19096;BME280;9680;52.520;13.332;2023-12-07T10:32:28;101773.16;;;3.05;84.46
19096;BME280;9680;52.520;13.332;2023-12-07T10:34:54;101771.41;;;3.02;84.13
19096;BME280;9680;52.520;13.332;2023-12-07T10:37:23;101773.97;;;3.02;84.28
19096;BME280;9680;52.520;13.332;2023-12-07T10:39:51;101770.59;;;3.08;84.73
19096;BME280;9680;52.520;13.332;2023-12-07T10:42:18;101771.53;;;3.18;84.79
19096;BME280;9680;52.520;13.332;2023-12-07T10:44:55;101771.66;;;3.29;84.83
19096;BME280;9680;52.520;13.332;2023-12-07T10:47:25;101773.44;;;3.36;84.76
19096;BME280;9680;52.520;13.332;2023-12-07T10:49:54;101772.63;;;3.42;84.42
19096;BME280;9680;52.520;13.332;2023-12-07T10:52:24;101770.09;;;3.49;84.56
19096;BME280;9680;52.520;13.332;2023-12-07T10:54:57;101772.69;;;3.48;83.93
19096;BME280;9680;52.520;13.332;2023-12-07T10:57:29;101773.53;;;3.52;84.19
19096;BME280;9680;52.520;13.332;2023-12-07T10:59:59;101771.03;;;3.59;84.27
19096;BME280;9680;52.520;13.332;2023-12-07T11:02:26;101764.19;;;3.61;84.29
19096;BME280;9680;52.520;13.332;2023-12-07T11:04:56;101767.69;;;3.68;84.22
19096;BME280;9680;52.520;13.332;2023-12-07T11:07:25;101766.00;;;3.75;83.94
19096;BME280;9680;52.520;13.332;2023-12-07T11:09:59;101759.09;;;3.71;83.32
19096;BME280;9680;52.520;13.332;2023-12-07T11:12:32;101756.53;;;3.69;83.30
19096;BME280;9680;52.520;13.332;2023-12-07T11:15:01;101759.94;;;3.70;83.31
19096;BME280;9680;52.520;13.332;2023-12-07T11:17:28;101757.38;;;3.70;83.11
19096;BME280;9680;52.520;13.332;2023-12-07T11:19:55;101751.34;;;3.68;83.09
19096;BME280;9680;52.520;13.332;2023-12-07T11:22:22;101753.91;;;3.66;82.93
19096;BME280;9680;52.520;13.332;2023-12-07T11:24:57;101745.31;;;3.66;83.11
19096;BME280;9680;52.520;13.332;2023-12-07T11:27:29;101741.88;;;3.67;82.97
19096;BME280;9680;52.520;13.332;2023-12-07T11:29:58;101740.13;;;3.64;83.03
19096;BME280;9680;52.520;13.332;2023-12-07T11:32:28;101748.78;;;3.66;83.02
19096;BME280;9680;52.520;13.332;2023-12-07T11:35:01;101747.03;;;3.65;83.13
19096;BME280;9680;52.520;13.332;2023-12-07T11:38:01;101749.63;;;3.65;83.07
19096;BME280;9680;52.520;13.332;2023-12-07T11:40:29;101745.28;;;3.64;83.03
19096;BME280;9680;52.520;13.332;2023-12-07T11:42:58;101748.69;;;3.60;82.93
19096;BME280;9680;52.520;13.332;2023-12-07T11:45:38;101747.81;;;3.53;82.75
19096;BME280;9680;52.520;13.332;2023-12-07T11:48:11;101742.63;;;3.50;83.00
19096;BME280;9680;52.520;13.332;2023-12-07T11:50:54;101746.09;;;3.52;83.35
19096;BME280;9680;52.520;13.332;2023-12-07T11:53:23;101746.06;;;3.54;83.47
19096;BME280;9680;52.520;13.332;2023-12-07T11:55:50;101746.09;;;3.57;83.56
19096;BME280;9680;52.520;13.332;2023-12-07T11:58:17;101747.84;;;3.61;83.64
19096;BME280;9680;52.520;13.332;2023-12-07T12:00:44;101742.69;;;3.59;83.54
19096;BME280;9680;52.520;13.332;2023-12-07T12:03:13;101745.22;;;3.50;83.19
19096;BME280;9680;52.520;13.332;2023-12-07T12:05:41;101740.81;;;3.37;83.22
19096;BME280;9680;52.520;13.332;2023-12-07T12:08:08;101742.47;;;3.30;83.26
19096;BME280;9680;52.520;13.332;2023-12-07T12:10:35;101742.38;;;3.19;83.63
19096;BME280;9680;52.520;13.332;2023-12-07T12:13:02;101742.38;;;3.19;84.16
19096;BME280;9680;52.520;13.332;2023-12-07T12:15:30;101744.16;;;3.28;84.64
19096;BME280;9680;52.520;13.332;2023-12-07T12:17:57;101737.34;;;3.33;84.41
19096;BME280;9680;52.520;13.332;2023-12-07T12:20:25;101738.25;;;3.40;84.42
19096;BME280;9680;52.520;13.332;2023-12-07T12:22:53;101735.69;;;3.44;84.07
19096;BME280;9680;52.520;13.332;2023-12-07T12:25:20;101738.31;;;3.47;84.25
19096;BME280;9680;52.520;13.332;2023-12-07T12:27:49;101736.59;;;3.45;84.00
19096;BME280;9680;52.520;13.332;2023-12-07T12:30:17;101744.28;;;3.43;84.21
19096;BME280;9680;52.520;13.332;2023-12-07T12:32:43;101745.97;;;3.37;83.98
19096;BME280;9680;52.520;13.332;2023-12-07T12:35:10;101747.63;;;3.33;84.33
19096;BME280;9680;52.520;13.332;2023-12-07T12:37:39;101754.47;;;3.29;84.47
19096;BME280;9680;52.520;13.332;2023-12-07T12:40:06;101751.00;;;3.27;84.52
19096;BME280;9680;52.520;13.332;2023-12-07T12:42:33;101755.34;;;3.30;84.48
19096;BME280;9680;52.520;13.332;2023-12-07T12:45:03;101749.38;;;3.34;84.82
19096;BME280;9680;52.520;13.332;2023-12-07T12:47:31;101742.50;;;3.36;84.56
19096;BME280;9680;52.520;13.332;2023-12-07T12:49:59;101739.91;;;3.31;84.37
19096;BME280;9680;52.520;13.332;2023-12-07T12:52:28;101742.50;;;3.33;84.46
19096;BME280;9680;52.520;13.332;2023-12-07T12:54:56;101739.97;;;3.38;84.72
19096;BME280;9680;52.520;13.332;2023-12-07T12:57:24;101742.53;;;3.38;84.40
19096;BME280;9680;52.520;13.332;2023-12-07T12:59:51;101742.56;;;3.41;84.34
19096;BME280;9680;52.520;13.332;2023-12-07T13:02:18;101742.56;;;3.41;84.39
19096;BME280;9680;52.520;13.332;2023-12-07T13:04:45;101740.88;;;3.43;84.31